Portland — WDG2201 — position and weather

sailwx.info

Track history (hours):
 
Tides and Currents Weather Stations Pressure Air Temp Water Temp Dewpoint Dewpoint Depression Visibility Wind Speed Wind Dir Waves Ship Positions

Portland

Owner: Shaver Transportation Company, Portland, OR. More information available from US FCC via Universal Licensing System and Coast Guard Vessel Documentation Center.

Last reported at 2015-Aug-03 08:34 UTC. Time now 2015-Aug-03 08:42 UTC.
Position N 46°05' W 122°56'.

Length 27 m; draft 4 m.

Type: Towing. MMSI: 367315814.

Date/timePositionNaut miles runAvg speedWind from/ knotsBaromVisibWave heightAir tempDewpointWater temp
2015-Aug-03 08:34N 46°05' W 122°56'0 0.0
2015-Aug-03 07:33N 46°05' W 122°56'0 0.0
2015-Aug-03 06:33N 46°05' W 122°56'0 0.0
2015-Aug-03 05:33N 46°05' W 122°56'0 0.0
2015-Aug-03 04:33N 46°05' W 122°56'0 0.0
2015-Aug-03 03:33N 46°05' W 122°56'0 0.0
2015-Aug-03 02:34N 46°05' W 122°56'0 0.0
2015-Aug-03 01:33N 46°05' W 122°56'0 0.0
2015-Aug-03 00:33N 46°05' W 122°56'0 0.0
2015-Aug-02 23:34N 46°05' W 122°56'5 5.1
2015-Aug-02 22:33N 46°01' W 122°52'5 5.1
2015-Aug-02 21:33N 46°05' W 122°56'0 0.0
2015-Aug-02 20:18N 46°05' W 122°56'0 0.0
2015-Aug-02 19:33N 46°05' W 122°56'0 0.0
2015-Aug-02 18:30N 46°05' W 122°56'0 0.0
2015-Aug-02 17:30N 46°05' W 122°56'0 0.0
2015-Aug-02 16:24N 46°05' W 122°56'0 0.0
2015-Aug-02 15:33N 46°05' W 122°56'0 0.0
2015-Aug-02 14:33N 46°05' W 122°56'1 1.1
2015-Aug-02 13:33N 46°06' W 122°57'1 1.0
2015-Aug-02 12:33N 46°07' W 122°58'2 2.2
2015-Aug-02 11:33N 46°05' W 122°56'0 0.0
2015-Aug-02 10:33N 46°05' W 122°56'0 0.0
2015-Aug-02 09:33N 46°05' W 122°56'0 0.0
2015-Aug-02 08:33N 46°05' W 122°56'0 0.0
2015-Aug-02 07:33N 46°05' W 122°56'0 0.0
2015-Aug-02 06:32N 46°05' W 122°56'0 0.0
2015-Aug-02 05:34N 46°05' W 122°56'2 2.5
2015-Aug-02 04:33N 46°04' W 122°53'5 5.1
2015-Aug-02 03:33N 45°59' W 122°50'0 0.1
2015-Aug-02 02:33N 45°59' W 122°50'0 0.1
2015-Aug-02 01:33N 45°59' W 122°50'3 2.8
2015-Aug-02 00:33N 46°02' W 122°52'0 0.0
2015-Aug-01 23:33N 46°02' W 122°52'5 4.4
2015-Aug-01 22:31N 46°05' W 122°56'0 0.0
2015-Aug-01 21:33N 46°05' W 122°56'0 0.0
2015-Aug-01 20:33N 46°05' W 122°56'0 0.0
2015-Aug-01 19:33N 46°05' W 122°56'0 0.0
2015-Aug-01 18:33N 46°05' W 122°56'0 0.0
2015-Aug-01 17:33N 46°05' W 122°56'0 0.0
2015-Aug-01 16:33N 46°05' W 122°56'0 0.0
2015-Aug-01 15:33N 46°05' W 122°56'0 0.0
2015-Aug-01 14:33N 46°05' W 122°56'0 0.0
2015-Aug-01 13:33N 46°05' W 122°56'0 0.0
2015-Aug-01 12:33N 46°05' W 122°56'0 0.0
2015-Aug-01 11:33N 46°05' W 122°56'0 0.0
2015-Aug-01 10:32N 46°05' W 122°56'0 0.0
2015-Aug-01 09:33N 46°05' W 122°56'0 0.0
2015-Aug-01 08:33N 46°05' W 122°56'0 0.0
2015-Aug-01 07:33N 46°05' W 122°56'0 0.0
2015-Aug-01 06:33N 46°05' W 122°56'0 0.0
2015-Aug-01 05:33N 46°05' W 122°56'0 0.0
2015-Aug-01 04:33N 46°05' W 122°56'0 0.0
2015-Aug-01 03:33N 46°05' W 122°56'0 0.0
2015-Aug-01 02:33N 46°05' W 122°56'0 0.0
2015-Aug-01 01:33N 46°05' W 122°56'0 0.0
2015-Aug-01 00:33N 46°05' W 122°56'0 0.0
2015-Jul-31 23:33N 46°05' W 122°56'0 0.0
2015-Jul-31 22:33N 46°05' W 122°56'0 0.0
2015-Jul-31 21:33N 46°05' W 122°56'0 0.0
2015-Jul-31 20:33N 46°05' W 122°56'0 0.0
2015-Jul-31 19:33N 46°05' W 122°56'0 0.0
2015-Jul-31 18:33N 46°05' W 122°56'0 0.0
2015-Jul-31 17:32N 46°05' W 122°56'0 0.0
2015-Jul-31 16:33N 46°05' W 122°56'0 0.0
2015-Jul-31 15:33N 46°05' W 122°56'0 0.0
2015-Jul-31 14:33N 46°05' W 122°56'0 0.0
2015-Jul-31 13:33N 46°05' W 122°56'0 0.0
2015-Jul-31 12:33N 46°05' W 122°56'0 0.0
2015-Jul-31 11:33N 46°05' W 122°56'0 0.0
2015-Jul-31 10:33N 46°05' W 122°56'0 0.0
2015-Jul-31 09:33N 46°05' W 122°56'0 0.0
2015-Jul-31 08:33N 46°05' W 122°56'0 0.0
2015-Jul-31 07:33N 46°05' W 122°56'0 0.0
2015-Jul-31 06:33N 46°05' W 122°56'0 0.0
2015-Jul-31 05:33N 46°05' W 122°56'0 0.0
2015-Jul-31 04:33N 46°05' W 122°56'0 0.0
2015-Jul-31 03:33N 46°05' W 122°56'0 0.0
2015-Jul-31 02:33N 46°05' W 122°56'0 0.0
2015-Jul-31 01:33N 46°05' W 122°56'0 0.0
2015-Jul-31 00:33N 46°05' W 122°56'0 0.0
2015-Jul-30 23:33N 46°05' W 122°56'0 0.0
2015-Jul-30 22:33N 46°05' W 122°56'0 0.0
2015-Jul-30 21:33N 46°05' W 122°56'0 0.0
2015-Jul-30 20:33N 46°05' W 122°56'0 0.0
2015-Jul-30 19:29N 46°05' W 122°56'0 0.0
2015-Jul-30 18:33N 46°05' W 122°56'0 0.0
2015-Jul-30 17:33N 46°05' W 122°56'0 0.0
2015-Jul-30 16:33N 46°05' W 122°56'0 0.0
2015-Jul-30 15:33N 46°05' W 122°56'0 0.0
2015-Jul-30 14:33N 46°05' W 122°56'0 0.0
2015-Jul-30 13:33N 46°05' W 122°56'0 0.0
2015-Jul-30 12:33N 46°05' W 122°56'0 0.0
2015-Jul-30 11:33N 46°05' W 122°56'0 0.0
2015-Jul-30 10:33N 46°05' W 122°56'0 0.0
2015-Jul-30 09:33N 46°05' W 122°56'0 0.0
2015-Jul-30 08:33N 46°05' W 122°56'0 0.0
2015-Jul-30 07:33N 46°05' W 122°56'0 0.0
2015-Jul-30 06:33N 46°05' W 122°56'0 0.0
2015-Jul-30 05:33N 46°05' W 122°56'0 0.0
2015-Jul-30 04:33N 46°05' W 122°56'0 0.0
2015-Jul-30 03:32N 46°05' W 122°56'0 0.0
2015-Jul-30 02:32N 46°05' W 122°56'0 0.0
2015-Jul-30 01:33N 46°05' W 122°56'0 0.0
2015-Jul-30 00:30N 46°05' W 122°56'0 0.0
2015-Jul-29 23:34N 46°05' W 122°56'0 0.0
2015-Jul-29 22:33N 46°05' W 122°56'0 0.0
2015-Jul-29 21:33N 46°05' W 122°56'0 0.0
2015-Jul-29 20:33N 46°05' W 122°56'0 0.0
2015-Jul-29 19:33N 46°05' W 122°56'0 0.0
2015-Jul-29 18:34N 46°05' W 122°56'0 0.0
2015-Jul-29 17:33N 46°05' W 122°56'0 0.0
2015-Jul-29 16:33N 46°05' W 122°56'0 0.0
2015-Jul-29 15:33N 46°05' W 122°56'0 0.0
2015-Jul-29 14:33N 46°05' W 122°56'2 1.7
2015-Jul-29 13:33N 46°07' W 122°58'0 0.2
2015-Jul-29 12:33N 46°06' W 122°58'2 1.5
2015-Jul-29 11:33N 46°05' W 122°56'0 0.0
2015-Jul-29 10:33N 46°05' W 122°56'0 0.0
2015-Jul-29 09:33N 46°05' W 122°56'0 0.0
2015-Jul-29 08:33N 46°05' W 122°56'0 0.0
2015-Jul-29 07:33N 46°05' W 122°56'0 0.0
2015-Jul-29 06:33N 46°05' W 122°56'0 0.0
2015-Jul-29 05:33N 46°05' W 122°56'0 0.0
2015-Jul-29 04:33N 46°05' W 122°56'0 0.0
2015-Jul-29 03:33N 46°05' W 122°56'0 0.0
2015-Jul-29 02:33N 46°05' W 122°56'0 0.0
2015-Jul-29 01:33N 46°05' W 122°56'0 0.0
2015-Jul-29 00:33N 46°05' W 122°56'0 0.0
2015-Jul-28 23:33N 46°05' W 122°56'0 0.0
2015-Jul-28 22:33N 46°05' W 122°56'0 0.0
2015-Jul-28 21:33N 46°05' W 122°56'0 0.0
2015-Jul-28 20:33N 46°05' W 122°56'0 0.0
2015-Jul-28 19:33N 46°05' W 122°56'0 0.0
2015-Jul-28 18:33N 46°05' W 122°56'0 0.0
2015-Jul-28 17:33N 46°05' W 122°56'0 0.0
2015-Jul-28 16:33N 46°05' W 122°56'0 0.0
2015-Jul-28 15:33N 46°05' W 122°56'0 0.0
2015-Jul-28 14:33N 46°05' W 122°56'1 0.8
2015-Jul-28 13:33N 46°06' W 122°57'1 0.7
2015-Jul-28 12:31N 46°05' W 122°56'0 0.0
2015-Jul-28 11:31N 46°05' W 122°56'0 0.0
2015-Jul-28 10:31N 46°05' W 122°56'0 0.0
2015-Jul-28 09:31N 46°05' W 122°56'0 0.0
2015-Jul-28 08:31N 46°05' W 122°56'0 0.0
2015-Jul-28 07:28N 46°05' W 122°56'0 0.0
2015-Jul-28 06:28N 46°05' W 122°56'0 0.0
2015-Jul-28 05:31N 46°05' W 122°56'0 0.0
2015-Jul-28 04:28N 46°05' W 122°56'0 0.0
2015-Jul-28 03:31N 46°05' W 122°56'0 0.0
2015-Jul-28 02:31N 46°05' W 122°56'0 0.0
2015-Jul-28 01:31N 46°05' W 122°56'0 0.0
2015-Jul-28 00:16N 46°05' W 122°56'0 0.0
2015-Jul-27 23:31N 46°05' W 122°56'0 0.0
2015-Jul-27 22:28N 46°05' W 122°56'0 0.0
2015-Jul-27 21:28N 46°05' W 122°56'0 0.0
2015-Jul-27 20:31N 46°05' W 122°56'0 0.0
2015-Jul-27 19:28N 46°05' W 122°56'0 0.0
2015-Jul-27 18:31N 46°05' W 122°56'0 0.0
2015-Jul-27 17:28N 46°05' W 122°56'0 0.0
2015-Jul-27 16:31N 46°05' W 122°56'1 0.6
2015-Jul-27 15:33N 46°05' W 122°55'7 7.2
2015-Jul-27 14:33N 45°59' W 122°50'1 1.1
2015-Jul-27 13:33N 45°60' W 122°51'1 0.9
2015-Jul-27 12:33N 45°59' W 122°50'0 0.0
2015-Jul-27 11:33N 45°59' W 122°50'7 7.4
2015-Jul-27 10:33N 46°05' W 122°56'0 0.0
2015-Jul-27 09:33N 46°05' W 122°56'0 0.0
2015-Jul-27 08:33N 46°05' W 122°56'0 0.0
2015-Jul-27 07:33N 46°05' W 122°56'0 0.0
2015-Jul-27 06:33N 46°05' W 122°56'0 0.0
2015-Jul-27 05:33N 46°05' W 122°56'0 0.0
2015-Jul-27 04:33N 46°05' W 122°56'0 0.0
2015-Jul-27 03:33N 46°05' W 122°56'0 0.0
2015-Jul-27 02:33N 46°05' W 122°56'0 0.0
2015-Jul-27 01:30N 46°05' W 122°56'0 0.0
2015-Jul-27 00:33N 46°05' W 122°56'0 0.0
2015-Jul-26 23:33N 46°05' W 122°56'0 0.0
2015-Jul-26 22:33N 46°05' W 122°56'0 0.0
2015-Jul-26 21:33N 46°05' W 122°56'0 0.0
2015-Jul-26 20:33N 46°05' W 122°56'7 6.8
2015-Jul-26 19:33N 45°60' W 122°51'1 0.8
2015-Jul-26 18:33N 45°59' W 122°50'7 6.9
2015-Jul-26 17:33N 46°05' W 122°55'1 0.8
2015-Jul-26 16:30N 46°05' W 122°56'0 0.0
2015-Jul-26 15:33N 46°05' W 122°56'0 0.0
2015-Jul-26 14:30N 46°05' W 122°56'0 0.0
2015-Jul-26 13:24N 46°05' W 122°56'0 0.0
2015-Jul-26 12:30N 46°05' W 122°56'0 0.0
2015-Jul-26 11:33N 46°05' W 122°56'0 0.0
2015-Jul-26 10:33N 46°05' W 122°56'0 0.0
2015-Jul-26 09:33N 46°05' W 122°56'0 0.0
2015-Jul-26 08:33N 46°05' W 122°56'0 0.0
2015-Jul-26 07:33N 46°05' W 122°56'0 0.0
2015-Jul-26 06:21N 46°05' W 122°56'0 0.0
2015-Jul-26 05:33N 46°05' W 122°56'0 0.0
2015-Jul-26 04:30N 46°05' W 122°56'0 0.0
2015-Jul-26 03:33N 46°05' W 122°56'0 0.0
2015-Jul-26 02:30N 46°05' W 122°56'0 0.0
2015-Jul-26 01:27N 46°05' W 122°56'0 0.0
2015-Jul-26 00:30N 46°05' W 122°56'0 0.0
2015-Jul-25 23:33N 46°05' W 122°56'0 0.0
2015-Jul-25 22:33N 46°05' W 122°56'0 0.0
2015-Jul-25 21:30N 46°05' W 122°56'0 0.0
2015-Jul-25 20:33N 46°05' W 122°56'0 0.0
2015-Jul-25 19:30N 46°05' W 122°56'0 0.0
2015-Jul-25 18:30N 46°05' W 122°56'0 0.0
2015-Jul-25 17:27N 46°05' W 122°56'0 0.0
2015-Jul-25 16:33N 46°05' W 122°56'0 0.0
2015-Jul-25 15:27N 46°05' W 122°56'0 0.0
2015-Jul-25 14:33N 46°05' W 122°56'0 0.0
2015-Jul-25 13:33N 46°05' W 122°56'0 0.0
2015-Jul-25 12:27N 46°05' W 122°56'0 0.0
2015-Jul-25 11:33N 46°05' W 122°56'0 0.0
2015-Jul-25 10:30N 46°05' W 122°56'0 0.0
2015-Jul-25 09:30N 46°05' W 122°56'0 0.0
2015-Jul-25 08:33N 46°05' W 122°56'0 0.0
2015-Jul-25 07:33N 46°05' W 122°56'0 0.0
2015-Jul-25 06:33N 46°05' W 122°56'0 0.0
2015-Jul-25 05:30N 46°05' W 122°56'0 0.0
2015-Jul-25 04:30N 46°05' W 122°56'0 0.0
2015-Jul-25 03:30N 46°05' W 122°56'0 0.0
2015-Jul-25 02:30N 46°05' W 122°56'0 0.0
2015-Jul-25 01:33N 46°05' W 122°56'1 0.5
2015-Jul-25 00:33N 46°06' W 122°56'1 0.5
2015-Jul-24 23:34N 46°05' W 122°56'0 0.0
2015-Jul-24 22:34N 46°05' W 122°56'2 1.8
2015-Jul-24 21:34N 46°07' W 122°58'2 1.8
2015-Jul-24 20:34N 46°05' W 122°56'0 0.0
2015-Jul-24 19:33N 46°05' W 122°56'0 0.0
2015-Jul-24 18:33N 46°05' W 122°56'0 0.0
2015-Jul-24 17:33N 46°05' W 122°56'0 0.0
2015-Jul-24 16:33N 46°05' W 122°56'0 0.0
2015-Jul-24 15:33N 46°05' W 122°56'0 0.0
2015-Jul-24 14:33N 46°05' W 122°56'1 0.5
2015-Jul-24 13:34N 46°06' W 122°56'1 0.7
2015-Jul-24 12:34N 46°06' W 122°55'0 0.2
2015-Jul-24 11:33N 46°05' W 122°55'1 1.4
2015-Jul-24 10:34N 46°06' W 122°57'1 1.1
2015-Jul-24 09:33N 46°05' W 122°56'  
Track history (hours):
 
Tides and Currents Weather Stations Pressure Air Temp Water Temp Dewpoint Dewpoint Depression Visibility Wind Speed Wind Dir Waves Ship Positions

Portland

Owner: Shaver Transportation Company, Portland, OR. More information available from US FCC via Universal Licensing System and Coast Guard Vessel Documentation Center.

Last reported at 2015-Aug-03 08:34 UTC. Time now 2015-Aug-03 08:42 UTC.
Position N 46°05' W 122°56'.

Length 27 m; draft 4 m.

Type: Towing. MMSI: 367315814.

Date/timePositionNaut miles runAvg speedWind from/ knotsBaromVisibWave heightAir tempDewpointWater temp
2015-Aug-03 08:34N 46°05' W 122°56'0 0.0
2015-Aug-03 07:33N 46°05' W 122°56'0 0.0
2015-Aug-03 06:33N 46°05' W 122°56'0 0.0
2015-Aug-03 05:33N 46°05' W 122°56'0 0.0
2015-Aug-03 04:33N 46°05' W 122°56'0 0.0
2015-Aug-03 03:33N 46°05' W 122°56'0 0.0
2015-Aug-03 02:34N 46°05' W 122°56'0 0.0
2015-Aug-03 01:33N 46°05' W 122°56'0 0.0
2015-Aug-03 00:33N 46°05' W 122°56'0 0.0
2015-Aug-02 23:34N 46°05' W 122°56'5 5.1
2015-Aug-02 22:33N 46°01' W 122°52'5 5.1
2015-Aug-02 21:33N 46°05' W 122°56'0 0.0
2015-Aug-02 20:18N 46°05' W 122°56'0 0.0
2015-Aug-02 19:33N 46°05' W 122°56'0 0.0
2015-Aug-02 18:30N 46°05' W 122°56'0 0.0
2015-Aug-02 17:30N 46°05' W 122°56'0 0.0
2015-Aug-02 16:24N 46°05' W 122°56'0 0.0
2015-Aug-02 15:33N 46°05' W 122°56'0 0.0
2015-Aug-02 14:33N 46°05' W 122°56'1 1.1
2015-Aug-02 13:33N 46°06' W 122°57'1 1.0
2015-Aug-02 12:33N 46°07' W 122°58'2 2.2
2015-Aug-02 11:33N 46°05' W 122°56'0 0.0
2015-Aug-02 10:33N 46°05' W 122°56'0 0.0
2015-Aug-02 09:33N 46°05' W 122°56'0 0.0
2015-Aug-02 08:33N 46°05' W 122°56'0 0.0
2015-Aug-02 07:33N 46°05' W 122°56'0 0.0
2015-Aug-02 06:32N 46°05' W 122°56'0 0.0
2015-Aug-02 05:34N 46°05' W 122°56'2 2.5
2015-Aug-02 04:33N 46°04' W 122°53'5 5.1
2015-Aug-02 03:33N 45°59' W 122°50'0 0.1
2015-Aug-02 02:33N 45°59' W 122°50'0 0.1
2015-Aug-02 01:33N 45°59' W 122°50'3 2.8
2015-Aug-02 00:33N 46°02' W 122°52'0 0.0
2015-Aug-01 23:33N 46°02' W 122°52'5 4.4
2015-Aug-01 22:31N 46°05' W 122°56'0 0.0
2015-Aug-01 21:33N 46°05' W 122°56'0 0.0
2015-Aug-01 20:33N 46°05' W 122°56'0 0.0
2015-Aug-01 19:33N 46°05' W 122°56'0 0.0
2015-Aug-01 18:33N 46°05' W 122°56'0 0.0
2015-Aug-01 17:33N 46°05' W 122°56'0 0.0
2015-Aug-01 16:33N 46°05' W 122°56'0 0.0
2015-Aug-01 15:33N 46°05' W 122°56'0 0.0
2015-Aug-01 14:33N 46°05' W 122°56'0 0.0
2015-Aug-01 13:33N 46°05' W 122°56'0 0.0
2015-Aug-01 12:33N 46°05' W 122°56'0 0.0
2015-Aug-01 11:33N 46°05' W 122°56'0 0.0
2015-Aug-01 10:32N 46°05' W 122°56'0 0.0
2015-Aug-01 09:33N 46°05' W 122°56'0 0.0
2015-Aug-01 08:33N 46°05' W 122°56'0 0.0
2015-Aug-01 07:33N 46°05' W 122°56'0 0.0
2015-Aug-01 06:33N 46°05' W 122°56'0 0.0
2015-Aug-01 05:33N 46°05' W 122°56'0 0.0
2015-Aug-01 04:33N 46°05' W 122°56'0 0.0
2015-Aug-01 03:33N 46°05' W 122°56'0 0.0
2015-Aug-01 02:33N 46°05' W 122°56'0 0.0
2015-Aug-01 01:33N 46°05' W 122°56'0 0.0
2015-Aug-01 00:33N 46°05' W 122°56'0 0.0
2015-Jul-31 23:33N 46°05' W 122°56'0 0.0
2015-Jul-31 22:33N 46°05' W 122°56'0 0.0
2015-Jul-31 21:33N 46°05' W 122°56'0 0.0
2015-Jul-31 20:33N 46°05' W 122°56'0 0.0
2015-Jul-31 19:33N 46°05' W 122°56'0 0.0
2015-Jul-31 18:33N 46°05' W 122°56'0 0.0
2015-Jul-31 17:32N 46°05' W 122°56'0 0.0
2015-Jul-31 16:33N 46°05' W 122°56'0 0.0
2015-Jul-31 15:33N 46°05' W 122°56'0 0.0
2015-Jul-31 14:33N 46°05' W 122°56'0 0.0
2015-Jul-31 13:33N 46°05' W 122°56'0 0.0
2015-Jul-31 12:33N 46°05' W 122°56'0 0.0
2015-Jul-31 11:33N 46°05' W 122°56'0 0.0
2015-Jul-31 10:33N 46°05' W 122°56'0 0.0
2015-Jul-31 09:33N 46°05' W 122°56'0 0.0
2015-Jul-31 08:33N 46°05' W 122°56'0 0.0
2015-Jul-31 07:33N 46°05' W 122°56'0 0.0
2015-Jul-31 06:33N 46°05' W 122°56'0 0.0
2015-Jul-31 05:33N 46°05' W 122°56'0 0.0
2015-Jul-31 04:33N 46°05' W 122°56'0 0.0
2015-Jul-31 03:33N 46°05' W 122°56'0 0.0
2015-Jul-31 02:33N 46°05' W 122°56'0 0.0
2015-Jul-31 01:33N 46°05' W 122°56'0 0.0
2015-Jul-31 00:33N 46°05' W 122°56'0 0.0
2015-Jul-30 23:33N 46°05' W 122°56'0 0.0
2015-Jul-30 22:33N 46°05' W 122°56'0 0.0
2015-Jul-30 21:33N 46°05' W 122°56'0 0.0
2015-Jul-30 20:33N 46°05' W 122°56'0 0.0
2015-Jul-30 19:29N 46°05' W 122°56'0 0.0
2015-Jul-30 18:33N 46°05' W 122°56'0 0.0
2015-Jul-30 17:33N 46°05' W 122°56'0 0.0
2015-Jul-30 16:33N 46°05' W 122°56'0 0.0
2015-Jul-30 15:33N 46°05' W 122°56'0 0.0
2015-Jul-30 14:33N 46°05' W 122°56'0 0.0
2015-Jul-30 13:33N 46°05' W 122°56'0 0.0
2015-Jul-30 12:33N 46°05' W 122°56'0 0.0
2015-Jul-30 11:33N 46°05' W 122°56'0 0.0
2015-Jul-30 10:33N 46°05' W 122°56'0 0.0
2015-Jul-30 09:33N 46°05' W 122°56'0 0.0
2015-Jul-30 08:33N 46°05' W 122°56'0 0.0
2015-Jul-30 07:33N 46°05' W 122°56'0 0.0
2015-Jul-30 06:33N 46°05' W 122°56'0 0.0
2015-Jul-30 05:33N 46°05' W 122°56'0 0.0
2015-Jul-30 04:33N 46°05' W 122°56'0 0.0
2015-Jul-30 03:32N 46°05' W 122°56'0 0.0
2015-Jul-30 02:32N 46°05' W 122°56'0 0.0
2015-Jul-30 01:33N 46°05' W 122°56'0 0.0
2015-Jul-30 00:30N 46°05' W 122°56'0 0.0
2015-Jul-29 23:34N 46°05' W 122°56'0 0.0
2015-Jul-29 22:33N 46°05' W 122°56'0 0.0
2015-Jul-29 21:33N 46°05' W 122°56'0 0.0
2015-Jul-29 20:33N 46°05' W 122°56'0 0.0
2015-Jul-29 19:33N 46°05' W 122°56'0 0.0
2015-Jul-29 18:34N 46°05' W 122°56'0 0.0
2015-Jul-29 17:33N 46°05' W 122°56'0 0.0
2015-Jul-29 16:33N 46°05' W 122°56'0 0.0
2015-Jul-29 15:33N 46°05' W 122°56'0 0.0
2015-Jul-29 14:33N 46°05' W 122°56'2 1.7
2015-Jul-29 13:33N 46°07' W 122°58'0 0.2
2015-Jul-29 12:33N 46°06' W 122°58'2 1.5
2015-Jul-29 11:33N 46°05' W 122°56'0 0.0
2015-Jul-29 10:33N 46°05' W 122°56'0 0.0
2015-Jul-29 09:33N 46°05' W 122°56'0 0.0
2015-Jul-29 08:33N 46°05' W 122°56'0 0.0
2015-Jul-29 07:33N 46°05' W 122°56'0 0.0
2015-Jul-29 06:33N 46°05' W 122°56'0 0.0
2015-Jul-29 05:33N 46°05' W 122°56'0 0.0
2015-Jul-29 04:33N 46°05' W 122°56'0 0.0
2015-Jul-29 03:33N 46°05' W 122°56'0 0.0
2015-Jul-29 02:33N 46°05' W 122°56'0 0.0
2015-Jul-29 01:33N 46°05' W 122°56'0 0.0
2015-Jul-29 00:33N 46°05' W 122°56'0 0.0
2015-Jul-28 23:33N 46°05' W 122°56'0 0.0
2015-Jul-28 22:33N 46°05' W 122°56'0 0.0
2015-Jul-28 21:33N 46°05' W 122°56'0 0.0
2015-Jul-28 20:33N 46°05' W 122°56'0 0.0
2015-Jul-28 19:33N 46°05' W 122°56'0 0.0
2015-Jul-28 18:33N 46°05' W 122°56'0 0.0
2015-Jul-28 17:33N 46°05' W 122°56'0 0.0
2015-Jul-28 16:33N 46°05' W 122°56'0 0.0
2015-Jul-28 15:33N 46°05' W 122°56'0 0.0
2015-Jul-28 14:33N 46°05' W 122°56'1 0.8
2015-Jul-28 13:33N 46°06' W 122°57'1 0.7
2015-Jul-28 12:31N 46°05' W 122°56'0 0.0
2015-Jul-28 11:31N 46°05' W 122°56'0 0.0
2015-Jul-28 10:31N 46°05' W 122°56'0 0.0
2015-Jul-28 09:31N 46°05' W 122°56'0 0.0
2015-Jul-28 08:31N 46°05' W 122°56'0 0.0
2015-Jul-28 07:28N 46°05' W 122°56'0 0.0
2015-Jul-28 06:28N 46°05' W 122°56'0 0.0
2015-Jul-28 05:31N 46°05' W 122°56'0 0.0
2015-Jul-28 04:28N 46°05' W 122°56'0 0.0
2015-Jul-28 03:31N 46°05' W 122°56'0 0.0
2015-Jul-28 02:31N 46°05' W 122°56'0 0.0
2015-Jul-28 01:31N 46°05' W 122°56'0 0.0
2015-Jul-28 00:16N 46°05' W 122°56'0 0.0
2015-Jul-27 23:31N 46°05' W 122°56'0 0.0
2015-Jul-27 22:28N 46°05' W 122°56'0 0.0
2015-Jul-27 21:28N 46°05' W 122°56'0 0.0
2015-Jul-27 20:31N 46°05' W 122°56'0 0.0
2015-Jul-27 19:28N 46°05' W 122°56'0 0.0
2015-Jul-27 18:31N 46°05' W 122°56'0 0.0
2015-Jul-27 17:28N 46°05' W 122°56'0 0.0
2015-Jul-27 16:31N 46°05' W 122°56'1 0.6
2015-Jul-27 15:33N 46°05' W 122°55'7 7.2
2015-Jul-27 14:33N 45°59' W 122°50'1 1.1
2015-Jul-27 13:33N 45°60' W 122°51'1 0.9
2015-Jul-27 12:33N 45°59' W 122°50'0 0.0
2015-Jul-27 11:33N 45°59' W 122°50'7 7.4
2015-Jul-27 10:33N 46°05' W 122°56'0 0.0
2015-Jul-27 09:33N 46°05' W 122°56'0 0.0
2015-Jul-27 08:33N 46°05' W 122°56'0 0.0
2015-Jul-27 07:33N 46°05' W 122°56'0 0.0
2015-Jul-27 06:33N 46°05' W 122°56'0 0.0
2015-Jul-27 05:33N 46°05' W 122°56'0 0.0
2015-Jul-27 04:33N 46°05' W 122°56'0 0.0
2015-Jul-27 03:33N 46°05' W 122°56'0 0.0
2015-Jul-27 02:33N 46°05' W 122°56'0 0.0
2015-Jul-27 01:30N 46°05' W 122°56'0 0.0
2015-Jul-27 00:33N 46°05' W 122°56'0 0.0
2015-Jul-26 23:33N 46°05' W 122°56'0 0.0
2015-Jul-26 22:33N 46°05' W 122°56'0 0.0
2015-Jul-26 21:33N 46°05' W 122°56'0 0.0
2015-Jul-26 20:33N 46°05' W 122°56'7 6.8
2015-Jul-26 19:33N 45°60' W 122°51'1 0.8
2015-Jul-26 18:33N 45°59' W 122°50'7 6.9
2015-Jul-26 17:33N 46°05' W 122°55'1 0.8
2015-Jul-26 16:30N 46°05' W 122°56'0 0.0
2015-Jul-26 15:33N 46°05' W 122°56'0 0.0
2015-Jul-26 14:30N 46°05' W 122°56'0 0.0
2015-Jul-26 13:24N 46°05' W 122°56'0 0.0
2015-Jul-26 12:30N 46°05' W 122°56'0 0.0
2015-Jul-26 11:33N 46°05' W 122°56'0 0.0
2015-Jul-26 10:33N 46°05' W 122°56'0 0.0
2015-Jul-26 09:33N 46°05' W 122°56'0 0.0
2015-Jul-26 08:33N 46°05' W 122°56'0 0.0
2015-Jul-26 07:33N 46°05' W 122°56'0 0.0
2015-Jul-26 06:21N 46°05' W 122°56'0 0.0
2015-Jul-26 05:33N 46°05' W 122°56'0 0.0
2015-Jul-26 04:30N 46°05' W 122°56'0 0.0
2015-Jul-26 03:33N 46°05' W 122°56'0 0.0
2015-Jul-26 02:30N 46°05' W 122°56'0 0.0
2015-Jul-26 01:27N 46°05' W 122°56'0 0.0
2015-Jul-26 00:30N 46°05' W 122°56'0 0.0
2015-Jul-25 23:33N 46°05' W 122°56'0 0.0
2015-Jul-25 22:33N 46°05' W 122°56'0 0.0
2015-Jul-25 21:30N 46°05' W 122°56'0 0.0
2015-Jul-25 20:33N 46°05' W 122°56'0 0.0
2015-Jul-25 19:30N 46°05' W 122°56'0 0.0
2015-Jul-25 18:30N 46°05' W 122°56'0 0.0
2015-Jul-25 17:27N 46°05' W 122°56'0 0.0
2015-Jul-25 16:33N 46°05' W 122°56'0 0.0
2015-Jul-25 15:27N 46°05' W 122°56'0 0.0
2015-Jul-25 14:33N 46°05' W 122°56'0 0.0
2015-Jul-25 13:33N 46°05' W 122°56'0 0.0
2015-Jul-25 12:27N 46°05' W 122°56'0 0.0
2015-Jul-25 11:33N 46°05' W 122°56'0 0.0
2015-Jul-25 10:30N 46°05' W 122°56'0 0.0
2015-Jul-25 09:30N 46°05' W 122°56'0 0.0
2015-Jul-25 08:33N 46°05' W 122°56'0 0.0
2015-Jul-25 07:33N 46°05' W 122°56'0 0.0
2015-Jul-25 06:33N 46°05' W 122°56'0 0.0
2015-Jul-25 05:30N 46°05' W 122°56'0 0.0
2015-Jul-25 04:30N 46°05' W 122°56'0 0.0
2015-Jul-25 03:30N 46°05' W 122°56'0 0.0
2015-Jul-25 02:30N 46°05' W 122°56'0 0.0
2015-Jul-25 01:33N 46°05' W 122°56'1 0.5
2015-Jul-25 00:33N 46°06' W 122°56'1 0.5
2015-Jul-24 23:34N 46°05' W 122°56'0 0.0
2015-Jul-24 22:34N 46°05' W 122°56'2 1.8
2015-Jul-24 21:34N 46°07' W 122°58'2 1.8
2015-Jul-24 20:34N 46°05' W 122°56'0 0.0
2015-Jul-24 19:33N 46°05' W 122°56'0 0.0
2015-Jul-24 18:33N 46°05' W 122°56'0 0.0
2015-Jul-24 17:33N 46°05' W 122°56'0 0.0
2015-Jul-24 16:33N 46°05' W 122°56'0 0.0
2015-Jul-24 15:33N 46°05' W 122°56'0 0.0
2015-Jul-24 14:33N 46°05' W 122°56'1 0.5
2015-Jul-24 13:34N 46°06' W 122°56'1 0.7
2015-Jul-24 12:34N 46°06' W 122°55'0 0.2
2015-Jul-24 11:33N 46°05' W 122°55'1 1.4
2015-Jul-24 10:34N 46°06' W 122°57'1 1.1
2015-Jul-24 09:33N 46°05' W 122°56'  

Dump ship's entire track history